Time;durP1;ratioP1;P1;durP2;ratioP2;P2;SDS_P1;SDS_P2;PMS_P1;PMS_P2;Temp;Humidity;BMP_temperature;BMP_pressure;BME280_temperature;BME280_humidity;BME280_pressure;Samples;Min_cycle;Max_cycle;Signal;HPM_P1;HPM_P2
2022/05/11 00:00:49;;;;;;;1215.93;999.90;;;;;;;10.79;100.00;100675.50;5062698;28;20401;-79
2022/05/11 00:03:22;;;;;;;1223.20;999.90;;;;;;;10.81;100.00;100671.41;5071205;28;20422;-80
2022/05/11 00:05:55;;;;;;;1162.15;999.90;;;;;;;10.83;100.00;100662.94;5054076;28;20433;-79
2022/05/11 00:08:29;;;;;;;989.03;920.77;;;;;;;10.81;100.00;100670.56;5059145;28;20522;-80
2022/05/11 00:10:57;;;;;;;587.78;550.55;;;;;;;10.81;100.00;100659.66;5075992;28;20431;-79
2022/05/11 00:13:28;;;;;;;262.93;248.73;;;;;;;10.82;100.00;100664.03;5038431;28;20792;-80
2022/05/11 00:15:56;;;;;;;167.13;158.10;;;;;;;10.85;100.00;100664.28;5046185;28;20427;-80
2022/05/11 00:18:29;;;;;;;111.28;105.43;;;;;;;10.88;100.00;100663.72;5065503;28;20895;-80
2022/05/11 00:21:03;;;;;;;101.63;96.18;;;;;;;10.80;100.00;100663.47;5045280;28;20413;-80
2022/05/11 00:23:36;;;;;;;90.30;85.47;;;;;;;10.79;100.00;100659.16;5036953;28;20428;-80
2022/05/11 00:26:09;;;;;;;63.33;59.83;;;;;;;10.82;100.00;100658.59;5064081;28;20417;-79
2022/05/11 00:28:44;;;;;;;49.22;46.50;;;;;;;10.86;100.00;100657.72;5076131;28;20429;-79
2022/05/11 00:31:17;;;;;;;47.33;44.73;;;;;;;10.85;100.00;100639.78;5066013;28;20442;-79
2022/05/11 00:33:51;;;;;;;37.88;35.75;;;;;;;10.88;100.00;100655.56;5048893;28;20421;-79
2022/05/11 00:36:19;;;;;;;44.33;41.83;;;;;;;10.88;100.00;100649.28;5053658;28;20434;-79
2022/05/11 00:38:53;;;;;;;53.55;50.58;;;;;;;10.88;100.00;100644.66;5065449;28;21254;-79
2022/05/11 00:41:26;;;;;;;48.25;45.55;;;;;;;10.89;100.00;100642.75;5071415;28;20438;-79
2022/05/11 00:44:04;;;;;;;54.92;51.85;;;;;;;10.87;100.00;100636.78;5051843;28;20923;-79
2022/05/11 00:46:42;;;;;;;65.75;62.08;;;;;;;10.88;100.00;100641.94;5084764;28;21043;-80
2022/05/11 00:49:34;;;;;;;48.78;46.00;;;;;;;10.90;100.00;100647.09;5061253;28;20421;-79
2022/05/11 00:52:13;;;;;;;36.63;34.53;;;;;;;10.95;100.00;100655.25;5043660;28;20882;-79
2022/05/11 00:54:49;;;;;;;27.55;25.95;;;;;;;11.03;100.00;100648.34;5069996;28;20445;-80
2022/05/11 00:57:27;;;;;;;51.08;48.22;;;;;;;10.99;100.00;100650.03;5071095;28;21052;-80
2022/05/11 01:00:03;;;;;;;56.47;53.33;;;;;;;10.86;100.00;100646.03;5070081;28;20767;-79
2022/05/11 01:02:36;;;;;;;76.00;71.80;;;;;;;10.80;100.00;100644.44;5051838;28;20429;-79
2022/05/11 01:05:10;;;;;;;65.40;61.75;;;;;;;10.90;100.00;100660.72;5077106;28;20409;-79
2022/05/11 01:07:44;;;;;;;55.33;52.22;;;;;;;10.85;100.00;100658.00;5051846;28;20430;-80
2022/05/11 01:10:12;;;;;;;54.07;51.07;;;;;;;10.85;100.00;100655.28;5062965;28;20425;-79
2022/05/11 01:12:50;;;;;;;50.42;47.63;;;;;;;10.94;100.00;100650.88;5072007;28;20423;-79
2022/05/11 01:15:26;;;;;;;35.15;33.15;;;;;;;10.97;100.00;100646.78;5066171;28;20427;-80
2022/05/11 01:18:02;;;;;;;29.00;27.30;;;;;;;11.00;100.00;100648.94;5042133;28;20429;-80
2022/05/11 01:20:37;;;;;;;43.95;41.50;;;;;;;10.95;100.00;100638.91;5056624;28;20426;-79
2022/05/11 01:23:17;;;;;;;51.10;48.22;;;;;;;10.89;100.00;100640.03;5054770;28;20426;-79
2022/05/11 01:25:53;;;;;;;49.33;46.63;;;;;;;10.89;100.00;100653.63;5047043;28;20430;-79
2022/05/11 01:28:26;;;;;;;53.80;50.80;;;;;;;10.82;100.00;100636.81;5063461;28;20426;-80
2022/05/11 01:31:02;;;;;;;45.83;43.22;;;;;;;10.85;100.00;100628.91;5060336;28;20901;-80
2022/05/11 01:33:38;;;;;;;63.03;59.53;;;;;;;10.87;100.00;100642.22;5068282;28;20417;-79
2022/05/11 01:36:21;;;;;;;74.30;70.20;;;;;;;10.89;100.00;100642.75;5040889;28;20433;-79
2022/05/11 01:38:57;;;;;;;122.00;115.50;;;;;;;10.81;100.00;100630.56;5065274;28;20409;-79
2022/05/11 01:41:31;;;;;;;91.25;86.32;;;;;;;10.88;100.00;100635.66;5084350;28;20918;-79
2022/05/11 01:44:06;;;;;;;108.97;103.10;;;;;;;10.77;100.00;100634.94;5066992;28;20452;-79
2022/05/11 01:46:44;;;;;;;161.70;152.90;;;;;;;10.83;100.00;100624.84;5057557;28;20745;-79
2022/05/11 01:49:17;;;;;;;194.73;184.02;;;;;;;10.92;100.00;100619.59;5074495;28;20421;-79
2022/05/11 01:51:51;;;;;;;192.95;182.50;;;;;;;10.96;100.00;100623.38;5044179;28;20421;-80
2022/05/11 01:54:19;;;;;;;153.87;145.63;;;;;;;10.96;100.00;100616.00;5056360;28;20427;-79
2022/05/11 01:56:54;;;;;;;104.60;99.00;;;;;;;10.97;100.00;100614.91;5069687;28;20446;-80
2022/05/11 01:59:22;;;;;;;104.00;98.47;;;;;;;10.98;100.00;100602.94;5064723;28;20400;-79
2022/05/11 02:01:55;;;;;;;87.57;82.78;;;;;;;10.94;100.00;100601.03;5040648;28;20437;-79
2022/05/11 02:10:05;;;;;;;179.00;169.32;;;;;;;10.91;100.00;100607.91;5063853;28;20402;-79
2022/05/11 02:12:41;;;;;;;172.40;163.07;;;;;;;10.86;100.00;100599.75;5045067;28;20435;-79
2022/05/11 02:15:20;;;;;;;229.53;217.23;;;;;;;10.80;100.00;100593.53;5049335;28;20453;-79
2022/05/11 02:17:54;;;;;;;223.67;211.47;;;;;;;10.80;100.00;100589.97;5075394;28;20412;-79
2022/05/11 02:20:27;;;;;;;173.93;164.55;;;;;;;10.95;100.00;100595.34;5063521;28;20454;-79
2022/05/11 02:23:01;;;;;;;256.00;242.32;;;;;;;10.86;100.00;100589.66;5038077;28;20770;-79
2022/05/11 02:25:34;;;;;;;466.83;438.50;;;;;;;10.86;100.00;100599.75;5064082;28;20420;-78
2022/05/11 02:28:09;;;;;;;165.88;156.90;;;;;;;10.88;100.00;100589.38;5047351;28;20434;-80
2022/05/11 02:30:44;;;;;;;158.13;149.70;;;;;;;10.89;100.00;100585.56;5045981;28;20432;-79
2022/05/11 02:33:17;;;;;;;116.30;110.10;;;;;;;10.89;100.00;100594.53;5042474;28;20426;-79
2022/05/11 02:35:51;;;;;;;116.03;109.93;;;;;;;10.95;100.00;100589.91;5063008;28;20435;-80
2022/05/11 02:38:22;;;;;;;128.18;121.38;;;;;;;10.97;100.00;100597.78;5061718;28;20886;-80
2022/05/11 02:40:55;;;;;;;97.50;92.30;;;;;;;10.93;100.00;100589.34;5089276;28;20918;-80
2022/05/11 02:43:26;;;;;;;109.15;103.35;;;;;;;10.94;100.00;100584.72;5070340;28;20415;-79
2022/05/11 02:46:00;;;;;;;127.45;120.75;;;;;;;10.98;100.00;100586.59;5064852;28;20419;-79
2022/05/11 02:48:31;;;;;;;101.78;96.38;;;;;;;10.98;100.00;100583.88;5047432;28;20446;-79
2022/05/11 02:50:59;;;;;;;64.00;60.50;;;;;;;10.97;100.00;100565.91;5048142;28;20409;-80
2022/05/11 02:53:33;;;;;;;87.85;83.10;;;;;;;10.98;100.00;100567.53;5063965;28;20427;-80
2022/05/11 02:56:06;;;;;;;71.97;67.97;;;;;;;11.01;100.00;100557.97;5067522;28;20424;-80
2022/05/11 02:58:40;;;;;;;129.27;122.38;;;;;;;10.93;100.00;100550.44;5062723;28;20407;-80
2022/05/11 03:01:14;;;;;;;160.55;151.90;;;;;;;10.94;100.00;100547.41;5063978;28;20419;-80
2022/05/11 03:03:48;;;;;;;184.15;174.07;;;;;;;10.94;100.00;100550.13;5067141;28;20433;-80
2022/05/11 03:06:21;;;;;;;229.75;217.38;;;;;;;10.93;100.00;100542.25;5038179;28;20425;-80
2022/05/11 03:08:54;;;;;;;395.83;372.30;;;;;;;10.88;100.00;100548.53;5042314;28;20417;-79
2022/05/11 03:11:28;;;;;;;1004.08;933.97;;;;;;;10.80;100.00;100541.81;5042697;28;20433;-79
2022/05/11 03:13:57;;;;;;;1230.45;999.90;;;;;;;10.90;100.00;100551.81;5042384;28;20892;-79
2022/05/11 03:16:30;;;;;;;1252.38;999.90;;;;;;;10.93;100.00;100550.44;5050847;28;20423;-79
2022/05/11 03:19:05;;;;;;;1255.03;999.90;;;;;;;10.88;100.00;100552.09;5043830;28;20434;-79
2022/05/11 03:21:38;;;;;;;1251.38;999.90;;;;;;;10.93;100.00;100542.25;5058108;28;20447;-79
2022/05/11 03:24:11;;;;;;;1240.35;999.90;;;;;;;10.91;100.00;100541.72;5060646;28;20423;-79
2022/05/11 03:26:45;;;;;;;1241.82;999.90;;;;;;;10.88;100.00;100540.38;5069656;28;20792;-80
2022/05/11 03:29:19;;;;;;;1227.63;999.90;;;;;;;10.93;100.00;100544.97;5048907;28;20433;-79
2022/05/11 03:34:43;;;;;;;1228.65;999.90;;;;;;;10.98;100.00;100537.59;5043209;28;20887;-79
2022/05/11 03:37:19;;;;;;;1249.63;999.90;;;;;;;10.97;100.00;100546.84;5084533;28;20424;-79
2022/05/11 03:39:52;;;;;;;1252.10;999.90;;;;;;;10.98;100.00;100544.91;5059558;28;20731;-79
2022/05/11 03:42:28;;;;;;;1223.05;999.90;;;;;;;10.98;100.00;100547.63;5062035;28;20421;-79
2022/05/11 03:45:08;;;;;;;1238.45;999.90;;;;;;;10.92;100.00;100537.91;5065043;28;20452;-79
2022/05/11 03:47:37;;;;;;;1080.97;998.67;;;;;;;11.05;100.00;100551.66;5058379;28;20442;-81
2022/05/11 03:50:11;;;;;;;1181.13;999.90;;;;;;;11.01;100.00;100553.34;5057830;28;20421;-80
2022/05/11 03:52:44;;;;;;;1213.38;999.90;;;;;;;10.99;100.00;100550.09;5057515;28;20768;-80
2022/05/11 03:55:18;;;;;;;516.88;485.15;;;;;;;11.03;100.00;100550.31;5037380;28;20436;-80
2022/05/11 03:57:47;;;;;;;308.92;291.95;;;;;;;11.12;100.00;100542.38;5042514;28;20780;-80
2022/05/11 04:00:24;;;;;;;256.77;242.88;;;;;;;11.15;100.00;100531.69;5052527;28;20438;-80
2022/05/11 04:02:54;;;;;;;169.00;159.88;;;;;;;11.15;100.00;100536.34;5064821;28;20425;-81
2022/05/11 04:05:28;;;;;;;168.68;159.63;;;;;;;11.11;100.00;100525.19;5047487;28;20464;-80
2022/05/11 04:08:01;;;;;;;149.45;141.50;;;;;;;11.12;100.00;100536.94;5057220;28;20432;-80
2022/05/11 04:10:34;;;;;;;82.20;77.70;;;;;;;11.17;100.00;100517.78;5054502;28;20427;-81
2022/05/11 04:13:08;;;;;;;92.70;87.70;;;;;;;11.19;100.00;100510.97;5058962;28;20428;-80
2022/05/11 04:15:42;;;;;;;116.88;110.63;;;;;;;11.18;100.00;100503.06;5049827;28;20412;-81
2022/05/11 04:18:15;;;;;;;105.88;100.25;;;;;;;11.15;100.00;100504.47;5047312;28;20432;-81
2022/05/11 04:20:49;;;;;;;134.30;127.22;;;;;;;11.15;100.00;100498.22;5067986;28;20436;-80
2022/05/11 04:23:22;;;;;;;229.00;216.60;;;;;;;11.17;100.00;100509.63;5042868;28;20433;-80
2022/05/11 04:25:56;;;;;;;244.88;231.75;;;;;;;11.19;100.00;100504.72;5049041;28;20432;-80
2022/05/11 04:28:30;;;;;;;354.88;334.73;;;;;;;11.17;100.00;100499.56;5051279;28;20415;-80
2022/05/11 04:31:06;;;;;;;183.63;173.70;;;;;;;11.25;100.00;100489.13;5039944;28;20455;-80
2022/05/11 04:33:41;;;;;;;162.63;153.82;;;;;;;11.28;100.00;100492.06;5049827;28;20439;-80
2022/05/11 04:36:14;;;;;;;212.27;200.73;;;;;;;11.34;100.00;100490.13;5045323;28;20909;-80
2022/05/11 04:38:48;;;;;;;363.00;342.25;;;;;;;11.33;100.00;100486.56;5052539;28;20434;-80
2022/05/11 04:41:21;;;;;;;1027.60;955.22;;;;;;;11.36;100.00;100502.31;5061827;28;20429;-80
2022/05/11 04:43:54;;;;;;;862.08;804.80;;;;;;;11.40;100.00;100492.47;5068386;28;20423;-80
2022/05/11 04:46:33;;;;;;;711.25;664.85;;;;;;;11.47;100.00;100488.59;5064504;28;20433;-80
2022/05/11 04:49:28;;;;;;;1195.20;999.90;;;;;;;11.49;100.00;100480.94;5068207;28;20426;-80
2022/05/11 04:52:07;;;;;;;1169.38;999.90;;;;;;;11.48;100.00;100487.50;5065443;28;20442;-80
2022/05/11 04:54:44;;;;;;;1194.82;999.90;;;;;;;11.50;100.00;100480.66;5058961;28;20427;-80
2022/05/11 04:57:19;;;;;;;1239.27;999.90;;;;;;;11.46;100.00;100482.34;5065824;28;20493;-81
2022/05/11 04:59:49;;;;;;;1277.07;999.90;;;;;;;11.58;100.00;100473.75;5073750;28;20910;-80
2022/05/11 05:02:27;;;;;;;1290.50;999.90;;;;;;;11.66;100.00;100470.38;5054357;28;20415;-81
2022/05/11 05:05:05;;;;;;;1295.75;999.90;;;;;;;11.65;100.00;100476.13;5078162;28;20440;-81
2022/05/11 05:07:39;;;;;;;1297.05;999.90;;;;;;;11.74;100.00;100485.28;5061573;28;20461;-80
2022/05/11 05:10:12;;;;;;;1280.97;999.90;;;;;;;11.80;100.00;100469.66;5048440;28;20415;-80
2022/05/11 05:12:41;;;;;;;1260.68;999.90;;;;;;;11.85;100.00;100469.59;5078609;28;20427;-80
2022/05/11 05:15:15;;;;;;;1260.00;999.90;;;;;;;11.85;100.00;100470.41;5066094;28;20763;-80
2022/05/11 05:17:45;;;;;;;1257.15;999.90;;;;;;;11.85;100.00;100470.41;5062130;28;20482;-80
2022/05/11 05:20:19;;;;;;;1243.80;999.90;;;;;;;11.92;100.00;100472.75;5064806;28;20405;-81
2022/05/11 05:22:52;;;;;;;1219.93;999.90;;;;;;;11.96;100.00;100465.66;5044276;28;20407;-79
2022/05/11 05:25:26;;;;;;;1229.78;999.90;;;;;;;12.05;100.00;100466.59;5063312;28;20436;-81
2022/05/11 05:33:39;;;;;;;1246.57;999.90;;;;;;;12.03;100.00;100470.75;5065404;28;20423;-80
2022/05/11 05:36:14;;;;;;;1251.88;999.90;;;;;;;11.96;100.00;100475.72;5067108;28;20425;-81
2022/05/11 05:38:47;;;;;;;1272.97;999.90;;;;;;;11.99;100.00;100477.88;5063493;28;20432;-80
2022/05/11 05:41:21;;;;;;;1272.00;999.90;;;;;;;12.07;100.00;100467.13;5066775;28;20440;-80
2022/05/11 05:43:55;;;;;;;1292.82;999.90;;;;;;;12.01;100.00;100451.13;5071271;28;20918;-81
2022/05/11 05:46:28;;;;;;;1298.63;999.90;;;;;;;12.11;100.00;100456.44;5086315;28;20438;-81
2022/05/11 05:48:58;;;;;;;1315.47;999.90;;;;;;;12.19;100.00;100449.50;5073177;28;20428;-81
2022/05/11 05:51:27;;;;;;;1327.78;999.90;;;;;;;12.24;100.00;100463.06;5059005;28;20429;-80
2022/05/11 05:54:00;;;;;;;1347.90;999.90;;;;;;;12.32;100.00;100456.09;5044255;28;20934;-82
2022/05/11 05:56:33;;;;;;;1359.38;999.90;;;;;;;12.34;100.00;100459.38;5059134;28;20423;-84
2022/05/11 05:59:10;;;;;;;1351.45;999.90;;;;;;;12.29;100.00;100457.53;5065224;28;20429;-80
2022/05/11 06:01:39;;;;;;;1366.22;999.90;;;;;;;12.34;100.00;100462.09;5065631;28;20902;-79
2022/05/11 06:04:13;;;;;;;1360.00;999.90;;;;;;;12.32;100.00;100447.91;5063628;28;20431;-79
2022/05/11 06:06:46;;;;;;;1338.63;999.90;;;;;;;12.33;100.00;100450.38;5062258;28;20037;-80
2022/05/11 06:09:20;;;;;;;1374.97;999.90;;;;;;;12.30;100.00;100447.41;5062097;28;20056;-79
2022/05/11 06:11:53;;;;;;;1471.47;999.90;;;;;;;12.36;100.00;100454.41;5045180;28;22002;-80
2022/05/11 06:14:26;;;;;;;1658.45;999.90;;;;;;;12.39;100.00;100451.09;5062687;28;20041;-79
2022/05/11 06:17:00;;;;;;;1816.78;999.90;;;;;;;12.33;100.00;100447.66;5059239;28;20037;-80
2022/05/11 06:19:34;;;;;;;1997.85;999.90;;;;;;;12.37;100.00;100456.03;5046709;28;20056;-80
2022/05/11 06:22:03;;;;;;;1999.90;999.90;;;;;;;12.42;100.00;100458.69;5047553;28;20052;-80
2022/05/11 06:24:36;;;;;;;1999.90;999.90;;;;;;;12.45;100.00;100449.09;5060734;28;20041;-79
2022/05/11 06:27:16;;;;;;;1999.90;999.90;;;;;;;12.58;100.00;100449.13;5061799;28;20514;-79
2022/05/11 06:29:51;;;;;;;1999.90;999.90;;;;;;;12.57;100.00;100454.91;5041688;28;20063;-80
2022/05/11 06:32:24;;;;;;;1999.90;999.90;;;;;;;12.66;100.00;100439.44;5065004;28;20400;-79
2022/05/11 06:34:59;;;;;;;1999.90;999.90;;;;;;;12.70;100.00;100437.72;5062867;28;20047;-81
2022/05/11 06:37:32;;;;;;;1999.90;999.90;;;;;;;12.76;100.00;100433.81;5049814;28;20378;-79
2022/05/11 06:40:06;;;;;;;1999.90;999.90;;;;;;;12.83;100.00;100432.59;5059956;28;20045;-79
2022/05/11 06:42:41;;;;;;;1999.90;999.90;;;;;;;12.76;100.00;100430.28;5038286;28;20045;-79
2022/05/11 06:45:15;;;;;;;1999.90;999.90;;;;;;;12.73;100.00;100417.19;5081494;28;20075;-79
2022/05/11 06:47:49;;;;;;;1999.90;999.90;;;;;;;12.57;100.00;100425.66;5047486;28;20037;-79
2022/05/11 06:50:26;;;;;;;1999.90;999.90;;;;;;;12.61;100.00;100428.63;5044390;28;20048;-79
2022/05/11 06:53:09;;;;;;;1999.90;999.90;;;;;;;12.66;100.00;100425.78;5041006;28;20048;-78
2022/05/11 07:01:21;;;;;;;1999.90;999.90;;;;;;;12.71;100.00;100412.03;5044174;28;20496;-78
2022/05/11 07:03:54;;;;;;;1999.90;999.90;;;;;;;12.79;100.00;100421.47;5028211;28;20056;-78
2022/05/11 07:06:29;;;;;;;1999.90;999.90;;;;;;;12.88;100.00;100419.66;5053168;28;20063;-79
2022/05/11 07:09:02;;;;;;;1999.90;999.90;;;;;;;12.99;100.00;100428.47;5048669;28;20053;-78
2022/05/11 07:14:21;;;;;;;1999.90;999.90;;;;;;;13.04;100.00;100422.13;5045609;28;20055;-79
2022/05/11 07:16:55;;;;;;;1999.90;999.90;;;;;;;13.27;100.00;100414.81;5056185;28;20049;-78
2022/05/11 07:19:29;;;;;;;1999.90;999.90;;;;;;;13.23;100.00;100408.34;5046249;28;20055;-78
2022/05/11 07:22:04;;;;;;;1999.90;999.90;;;;;;;13.25;100.00;100406.13;5035808;28;20055;-77
2022/05/11 07:24:38;;;;;;;1999.90;999.90;;;;;;;13.22;100.00;100410.25;5026938;28;20409;-78
2022/05/11 07:27:11;;;;;;;1999.90;999.90;;;;;;;13.41;100.00;100409.38;5036899;28;20481;-78
2022/05/11 07:29:45;;;;;;;1999.90;999.90;;;;;;;13.36;100.00;100418.47;5021977;28;20064;-78
2022/05/11 07:32:18;;;;;;;1999.90;999.90;;;;;;;13.29;100.00;100406.34;5037934;28;20052;-77
2022/05/11 07:34:46;;;;;;;1999.90;999.90;;;;;;;13.36;100.00;100407.56;5027522;28;20059;-78
2022/05/11 07:37:21;;;;;;;1999.90;999.90;;;;;;;13.49;100.00;100411.41;5051187;28;20045;-77
2022/05/11 07:39:56;;;;;;;1999.90;999.90;;;;;;;13.39;100.00;100393.28;5031575;28;20052;-78
2022/05/11 07:42:30;;;;;;;1999.90;999.90;;;;;;;13.52;100.00;100404.50;5042625;28;20048;-77
2022/05/11 07:45:04;;;;;;;1999.90;999.90;;;;;;;13.58;100.00;100419.69;5026714;28;20055;-78
2022/05/11 07:47:38;;;;;;;1999.90;999.90;;;;;;;13.56;100.00;100411.78;5054062;28;20051;-77
2022/05/11 07:50:07;;;;;;;1999.90;999.90;;;;;;;13.62;100.00;100417.97;5055880;28;21714;-78
2022/05/11 07:52:42;;;;;;;1999.90;999.90;;;;;;;13.89;100.00;100403.41;5018896;28;20066;-78
2022/05/11 07:55:17;;;;;;;1999.90;999.90;;;;;;;14.04;100.00;100393.22;5045165;28;20048;-77
2022/05/11 08:00:37;;;;;;;1999.90;999.90;;;;;;;14.36;100.00;100402.28;5022883;28;20048;-78
2022/05/11 08:03:11;;;;;;;1999.90;999.90;;;;;;;14.34;100.00;100388.91;5025289;28;20052;-77
2022/05/11 08:05:44;;;;;;;1999.90;999.90;;;;;;;14.37;100.00;100404.72;5030131;28;20111;-77
2022/05/11 08:08:19;;;;;;;1999.90;999.90;;;;;;;14.47;100.00;100414.59;5030730;28;20048;-77
2022/05/11 08:10:52;;;;;;;1999.90;999.90;;;;;;;14.31;100.00;100410.63;5046135;28;20048;-78
2022/05/11 08:13:25;;;;;;;1999.90;999.90;;;;;;;14.16;100.00;100406.34;5055134;28;20755;-77
2022/05/11 08:15:58;;;;;;;1999.90;999.90;;;;;;;14.16;100.00;100409.88;5042605;28;20052;-78
2022/05/11 08:18:32;;;;;;;1999.90;999.90;;;;;;;14.03;100.00;100391.59;5023025;28;20067;-77
2022/05/11 08:21:05;;;;;;;1999.90;999.90;;;;;;;14.03;100.00;100391.59;5039063;28;20052;-78
2022/05/11 08:23:40;;;;;;;1999.90;999.90;;;;;;;13.98;100.00;100389.00;5041658;28;20048;-78
2022/05/11 08:26:13;;;;;;;1999.90;999.90;;;;;;;14.02;100.00;100387.25;5020878;28;20052;-78
2022/05/11 08:28:46;;;;;;;1999.90;999.90;;;;;;;14.04;100.00;100382.25;5022696;28;20063;-77
2022/05/11 08:34:06;;;;;;;1999.90;999.90;;;;;;;13.90;100.00;100372.19;5040590;28;20046;-78
2022/05/11 08:36:35;;;;;;;1999.90;999.90;;;;;;;14.00;100.00;100387.53;5026719;28;20057;-78
2022/05/11 08:39:05;;;;;;;1999.90;999.90;;;;;;;14.25;100.00;100382.56;5043698;28;20059;-77
2022/05/11 08:41:45;;;;;;;1999.90;999.90;;;;;;;14.46;100.00;100371.94;5042344;28;20044;-78
2022/05/11 08:44:20;;;;;;;1999.90;999.90;;;;;;;14.70;100.00;100376.25;5018691;28;20053;-78
2022/05/11 08:47:03;;;;;;;1999.90;999.90;;;;;;;14.81;100.00;100371.31;5026393;28;20064;-78
2022/05/11 08:49:48;;;;;;;1999.90;999.90;;;;;;;14.91;100.00;100360.88;5020336;28;20058;-78
2022/05/11 08:52:33;;;;;;;1999.90;999.90;;;;;;;14.92;100.00;100367.97;5039671;28;20052;-78
2022/05/11 08:55:12;;;;;;;1999.90;999.90;;;;;;;14.93;100.00;100374.28;5038273;28;20059;-78
2022/05/11 08:57:48;;;;;;;1999.90;999.90;;;;;;;15.01;100.00;100368.03;5041696;28;20048;-78
2022/05/11 09:00:22;;;;;;;1999.90;999.90;;;;;;;14.99;100.00;100358.50;5024036;28;20071;-78
2022/05/11 09:02:53;;;;;;;1999.90;999.90;;;;;;;15.20;100.00;100361.44;5020638;28;20063;-78
2022/05/11 09:05:29;;;;;;;1999.90;999.90;;;;;;;15.54;100.00;100368.94;5037770;28;20586;-78
2022/05/11 09:08:06;;;;;;;1999.90;999.90;;;;;;;15.62;100.00;100370.06;5018606;28;20052;-79
2022/05/11 09:10:40;;;;;;;;;;;;;;;15.66;100.00;100376.53;5025412;28;20051;-78
2022/05/11 09:13:15;;;;;;;1999.90;999.90;;;;;;;15.65;100.00;100381.19;5042126;28;19935;-78
2022/05/11 09:15:55;;;;;;;1999.90;999.90;;;;;;;15.63;100.00;100377.97;5024497;28;20737;-78
2022/05/11 09:18:39;;;;;;;1999.90;999.90;;;;;;;15.76;100.00;100376.19;5023080;28;20053;-78
2022/05/11 09:21:19;;;;;;;1999.90;999.90;;;;;;;15.76;100.00;100378.94;5021798;28;21226;-79
2022/05/11 09:24:05;;;;;;;1999.90;999.90;;;;;;;15.75;100.00;100380.06;5045343;28;20481;-78
2022/05/11 09:26:44;;;;;;;1999.90;999.90;;;;;;;15.58;100.00;100375.38;5008051;28;1064468;-78
2022/05/11 09:29:21;;;;;;;1999.90;999.90;;;;;;;15.53;100.00;100363.75;5040410;28;20056;-78
2022/05/11 09:31:54;;;;;;;1999.90;999.90;;;;;;;15.53;100.00;100372.00;5028359;28;20064;-78
2022/05/11 09:34:30;;;;;;;1999.90;999.90;;;;;;;15.39;100.00;100358.44;5034252;28;20060;-78
2022/05/11 09:37:19;;;;;;;1999.90;999.90;;;;;;;15.36;100.00;100354.38;5048719;28;20055;-80
2022/05/11 09:39:54;;;;;;;1999.90;999.90;;;;;;;15.32;100.00;100353.41;5044614;28;20060;-78
2022/05/11 09:42:32;;;;;;;1999.90;999.90;;;;;;;15.41;100.00;100359.72;5026417;28;20057;-78
2022/05/11 09:45:07;;;;;;;1999.90;999.90;;;;;;;15.71;100.00;100339.91;5040359;28;20044;-79
2022/05/11 09:48:02;;;;;;;1999.90;999.90;;;;;;;15.89;100.00;100338.78;5041298;28;20797;-78
2022/05/11 09:50:29;;;;;;;1999.90;999.90;;;;;;;16.13;100.00;100342.97;5022747;28;20055;-78
2022/05/11 09:53:17;;;;;;;1999.90;999.90;;;;;;;16.23;100.00;100341.81;5043393;28;20051;-79
2022/05/11 09:55:51;;;;;;;1999.90;999.90;;;;;;;16.39;100.00;100337.41;5031748;28;21649;-79
2022/05/11 09:58:30;;;;;;;1999.90;999.90;;;;;;;16.65;100.00;100342.00;5024875;28;20067;-78
2022/05/11 10:01:11;;;;;;;1999.90;999.90;;;;;;;16.53;100.00;100341.88;5025186;28;20060;-78
2022/05/11 10:03:49;;;;;;;1999.90;999.90;;;;;;;16.64;100.00;100340.38;5041957;28;20056;-78
2022/05/11 10:06:26;;;;;;;1999.90;999.90;;;;;;;16.58;100.00;100336.22;5038957;28;20624;-78
2022/05/11 10:09:00;;;;;;;;;;;;;;;16.74;100.00;100342.78;5019392;28;20067;-78
2022/05/11 10:11:36;;;;;;;1999.90;999.90;;;;;;;16.68;100.00;100330.34;5023484;28;19935;-79
2022/05/11 10:23:06;;;;;;;1999.90;999.90;;;;;;;16.83;100.00;100320.75;5027392;28;21665;-78
2022/05/11 10:25:42;;;;;;;1784.32;999.90;;;;;;;16.71;100.00;100328.88;5019784;28;20087;-79
2022/05/11 10:28:23;;;;;;;1460.68;999.90;;;;;;;16.65;100.00;100329.09;5019912;28;20067;-78
2022/05/11 10:31:07;;;;;;;1381.78;999.90;;;;;;;16.67;100.00;100326.00;5034038;28;20081;-78
2022/05/11 10:33:48;;;;;;;1323.32;999.90;;;;;;;16.74;100.00;100322.75;5039892;28;20045;-79
2022/05/11 10:36:30;;;;;;;662.47;611.85;;;;;;;16.71;100.00;100324.22;5036825;28;20052;-78
2022/05/11 10:39:12;;;;;;;66.55;62.95;;;;;;;16.84;100.00;100314.13;5018246;28;20056;-78
2022/05/11 10:41:52;;;;;;;50.20;47.38;;;;;;;17.24;100.00;100318.44;5029439;28;20067;-78
2022/05/11 10:44:44;;;;;;;85.78;80.97;;;;;;;17.62;100.00;100304.56;5022851;28;20056;-78
2022/05/11 10:47:43;;;;;;;126.03;119.45;;;;;;;17.81;100.00;100315.06;5041196;28;20437;-78
2022/05/11 10:50:24;;;;;;;254.13;240.52;;;;;;;18.16;100.00;100306.50;5023316;28;20048;-78
2022/05/11 10:53:05;;;;;;;62.30;58.85;;;;;;;18.35;100.00;100297.72;5046666;28;20048;-78
2022/05/11 10:55:49;;;;;;;22.50;20.90;;;;;;;18.30;100.00;100292.41;5026341;28;20056;-78
2022/05/11 10:58:30;;;;;;;18.55;17.38;;;;;;;18.30;100.00;100295.19;5019812;28;20722;-78
2022/05/11 11:01:09;;;;;;;10.77;10.00;;;;;;;18.23;100.00;100283.91;5023962;28;20052;-78
2022/05/11 11:04:05;;;;;;;10.00;9.25;;;;;;;18.28;100.00;100283.69;5018918;28;20052;-78
2022/05/11 11:07:13;;;;;;;9.25;8.55;;;;;;;18.65;100.00;100291.19;5021249;28;20052;-78
2022/05/11 11:10:12;;;;;;;8.38;7.78;;;;;;;18.67;100.00;100286.13;5027520;28;20056;-78
2022/05/11 11:13:05;;;;;;;11.23;10.43;;;;;;;18.79;100.00;100288.09;5039535;28;20071;-78
2022/05/11 11:15:41;;;;;;;10.25;9.45;;;;;;;18.72;100.00;100285.09;5031251;28;20063;-78
2022/05/11 11:18:18;;;;;;;12.15;11.32;;;;;;;18.95;100.00;100272.47;5024159;28;20056;-78
2022/05/11 11:20:58;;;;;;;6.05;5.55;;;;;;;19.23;100.00;100277.25;5044116;28;20056;-77
2022/05/11 11:23:36;;;;;;;4.50;4.10;;;;;;;19.50;100.00;100283.16;5024552;28;20052;-77
2022/05/11 11:26:11;;;;;;;3.55;3.13;;;;;;;19.66;100.00;100281.25;5030067;28;20685;-78
2022/05/11 11:29:18;;;;;;;6.10;4.00;;;;;;;19.45;100.00;100275.13;5022950;28;20512;-78
2022/05/11 11:32:08;;;;;;;4.28;3.88;;;;;;;19.30;100.00;100274.69;5020480;28;20056;-78
2022/05/11 11:34:44;;;;;;;5.53;3.92;;;;;;;19.12;100.00;100265.91;5025184;28;20606;-78
2022/05/11 11:37:59;;;;;;;2.50;2.30;;;;;;;19.52;100.00;100273.38;5038082;28;20072;-78
2022/05/11 11:40:33;;;;;;;2.42;2.00;;;;;;;19.22;100.00;100263.81;5035770;28;20045;-77
2022/05/11 11:43:38;;;;;;;2.10;1.90;;;;;;;19.43;100.00;100258.94;5049103;28;20051;-77
2022/05/11 11:46:05;;;;;;;2.25;1.80;;;;;;;19.97;100.00;100259.63;5021820;28;20999;-77
2022/05/11 11:48:40;;;;;;;2.60;1.90;;;;;;;19.90;100.00;100254.72;5024375;28;20048;-78
2022/05/11 11:51:32;;;;;;;2.47;2.00;;;;;;;19.88;100.00;100248.75;5041180;28;20049;-78
2022/05/11 11:54:06;;;;;;;2.97;1.98;;;;;;;19.98;100.00;100247.41;5040667;28;20052;-77
2022/05/11 11:56:47;;;;;;;2.55;1.80;;;;;;;20.53;100.00;100239.31;5025932;28;20060;-77
2022/05/11 11:59:37;;;;;;;2.65;1.63;;;;;;;20.42;100.00;100233.53;5020031;28;20919;-78
2022/05/11 12:02:22;;;;;;;2.03;1.48;;;;;;;20.50;100.00;100229.78;5036868;28;20048;-78